Terminal Aerodrome Forecast
Issued by NWS Cleveland, OH

Home | Current Version | Previous Version | Graphics & Text | Print | Product List | Glossary Off
Versions: 1 2 3 4 5 6 7 8 9 10 11 12 13 14 15 16 17 18 19 20 21 22 23

000
FTUS41 KCLE 312000 AAA
TAFERI
TAF AMD
KERI 312042Z 3121/0118 20008KT P6SM BKN030 BKN080
     FM010000 22006KT P6SM BKN035 OVC250
     FM011100 VRB04KT 5SM -SN OVC035
     FM011300 12004KT 1SM -SN OVC015=

USA.gov is the U.S. government's official web portal to all federal, state and local government web resources and services.